Nago, Japan
Current Conditions -  °F | °C
As of 8:00 PM on Friday 19 Dec 2014 (Local Time) from RODN Reporting Station
Broken Clouds Broken Clouds  
Wind Chill: 64°   Ceiling: 11000
Heat Index: 64°   Visibility: 10mi
Dew Point: 55°   Wind: 12mph
Humidity: 73%   Direction: 120°ESE
Pressure: 30.2"   Gusts: NA
Location:  26.59°N, 127.99°E
Report Text: RODN 191100Z AUTO 12010KT 10SM FEW036 BKN110 18/13 A3020 RMK AO2 RAE1100 $
Loading
Personal Weather Stations






























Interactive Weather Map New forecast layout! Learn more

10-Day Weather Forecast

Advertisements
Track Severe Weather on mobile